Time;durP1;ratioP1;P1;durP2;ratioP2;P2;SDS_P1;SDS_P2;PMS_P1;PMS_P2;Temp;Humidity;BMP_temperature;BMP_pressure;BME280_temperature;BME280_humidity;BME280_pressure;Samples;Min_cycle;Max_cycle;Signal;HPM_P1;HPM_P2
2023/07/09 00:02:21;;;;;;;;;13.00;11.50;;;;;26.18;79.20;101521.38;6157867;23;45536;-80
2023/07/09 00:04:47;;;;;;;;;13.00;11.75;;;;;25.63;79.13;101450.19;6184118;23;45199;-81
2023/07/09 00:07:27;;;;;;;;;11.50;11.50;;;;;26.10;79.20;101529.44;6184051;23;45337;-80
2023/07/09 00:09:54;;;;;;;;;12.25;10.75;;;;;25.62;79.45;101458.47;6184594;23;45299;-80
2023/07/09 00:12:19;;;;;;;;;12.50;12.50;;;;;25.47;79.98;101441.84;6184848;23;45556;-81
2023/07/09 00:14:46;;;;;;;;;12.75;12.50;;;;;25.73;80.34;101478.06;6185145;23;45343;-81
2023/07/09 00:17:19;;;;;;;;;9.50;9.50;;;;;25.69;80.27;101492.06;6186000;23;45275;-81
2023/07/09 00:19:47;;;;;;;;;7.00;7.00;;;;;25.28;80.86;101439.28;6159056;23;45282;-80
2023/07/09 00:22:17;;;;;;;;;11.25;11.25;;;;;25.24;81.69;101427.88;6184462;23;46138;-80
2023/07/09 00:24:44;;;;;;;;;14.00;14.00;;;;;25.43;82.34;101462.09;6158601;23;45311;-80
2023/07/09 00:27:19;;;;;;;;;12.25;11.00;;;;;25.20;83.68;101440.00;6185063;23;45293;-80
2023/07/09 00:29:45;;;;;;;;;13.75;12.50;;;;;25.13;82.48;101441.63;6158830;23;45452;-80
2023/07/09 00:32:15;;;;;;;;;11.00;9.00;;;;;25.33;82.56;101478.41;6183926;23;45679;-79
2023/07/09 00:34:56;;;;;;;;;12.75;12.75;;;;;25.08;82.53;101449.34;6183256;23;45281;-80
2023/07/09 00:37:27;;;;;;;;;11.00;11.00;;;;;25.62;83.36;101539.75;6182479;23;45219;-80
2023/07/09 00:39:56;;;;;;;;;11.75;11.75;;;;;25.45;83.89;101518.84;6186109;23;45329;-80
2023/07/09 00:42:24;;;;;;;;;9.50;9.50;;;;;25.00;84.26;101461.94;6182851;23;45365;-81
2023/07/09 00:44:52;;;;;;;;;10.25;10.00;;;;;25.51;84.20;101550.78;6185937;23;45333;-80
2023/07/09 00:47:20;;;;;;;;;9.00;7.50;;;;;25.53;84.78;101551.47;6185269;23;45320;-80
2023/07/09 00:49:47;;;;;;;;;10.33;9.67;;;;;25.05;84.49;101498.38;6158266;23;45609;-80
2023/07/09 00:52:36;;;;;;;;;11.67;10.33;;;;;25.39;84.69;101540.09;6187559;23;46164;-80
2023/07/09 00:55:09;;;;;;;;;11.00;10.00;;;;;25.14;85.67;101512.88;6189890;23;45496;-80
2023/07/09 00:57:41;;;;;;;;;11.25;11.25;;;;;25.40;85.36;101568.91;6188808;23;45282;-80
2023/07/09 01:00:17;;;;;;;;;12.75;10.00;;;;;25.13;86.48;101528.25;6186654;23;45533;-80
2023/07/09 01:02:48;;;;;;;;;11.50;11.50;;;;;25.07;86.22;101515.31;6188347;23;45425;-80
2023/07/09 01:05:21;;;;;;;;;10.50;10.00;;;;;24.97;86.85;101511.78;6160795;23;45363;-80
2023/07/09 01:07:48;;;;;;;;;12.00;11.25;;;;;24.71;87.04;101484.50;6187700;23;45302;-80
2023/07/09 01:10:24;;;;;;;;;10.50;10.50;;;;;25.17;87.19;101574.84;6187448;23;45500;-80
2023/07/09 01:12:52;;;;;;;;;12.50;11.00;;;;;24.70;87.51;101507.16;6158693;23;46672;-80
2023/07/09 01:15:17;;;;;;;;;12.00;12.00;;;;;24.50;88.56;101483.00;6185255;23;45238;-81
2023/07/09 01:17:46;;;;;;;;;10.50;10.50;;;;;24.86;89.64;101537.19;6185845;23;45172;-80
2023/07/09 01:20:20;;;;;;;;;10.25;10.25;;;;;25.05;88.60;101582.28;6158831;23;45401;-82
2023/07/09 01:22:54;;;;;;;;;11.00;11.00;;;;;24.58;89.89;101502.91;6184582;23;45319;-81
2023/07/09 01:25:20;;;;;;;;;13.00;11.50;;;;;25.01;90.02;101588.13;6187092;23;45330;-82
2023/07/09 01:27:49;;;;;;;;;14.50;12.00;;;;;24.74;90.52;101543.72;6186402;23;45242;-82
2023/07/09 01:30:22;;;;;;;;;17.75;17.75;;;;;24.59;90.36;101528.97;6159874;23;45571;-82
2023/07/09 01:32:49;;;;;;;;;7.75;7.75;;;;;24.67;91.15;101552.59;6185444;23;47815;-82
2023/07/09 01:35:21;;;;;;;;;16.00;16.00;;;;;24.34;91.13;101500.66;6182779;23;45418;-81
2023/07/09 01:37:47;;;;;;;;;14.00;14.00;;;;;24.54;91.91;101563.69;6186534;23;45720;-82
2023/07/09 01:40:15;;;;;;;;;14.00;13.00;;;;;24.41;92.90;101541.50;6187731;23;45467;-82
2023/07/09 01:42:42;;;;;;;;;15.00;14.75;;;;;24.73;93.29;101589.88;6183615;23;46136;-82
2023/07/09 01:45:10;;;;;;;;;16.75;16.00;;;;;24.44;92.90;101548.47;6184779;23;45195;-82
2023/07/09 01:47:36;;;;;;;;;15.25;15.25;;;;;24.41;93.53;101557.72;6184357;23;45184;-82
2023/07/09 01:50:10;;;;;;;;;14.00;13.75;;;;;24.33;92.88;101536.81;6185496;23;45243;-81
2023/07/09 01:52:41;;;;;;;;;18.50;18.50;;;;;24.20;93.67;101538.09;6186415;23;45259;-82
2023/07/09 01:55:13;;;;;;;;;15.50;14.25;;;;;24.43;94.59;101588.19;6185842;23;45345;-82
2023/07/09 01:57:40;;;;;;;;;17.50;15.75;;;;;24.32;95.70;101561.28;6186024;23;45446;-82
2023/07/09 02:00:13;;;;;;;;;16.75;16.75;;;;;24.51;94.83;101596.44;6185775;23;45271;-82
2023/07/09 02:02:48;;;;;;;;;16.00;15.25;;;;;24.12;95.83;101549.59;6185913;23;45406;-82
2023/07/09 02:05:20;;;;;;;;;16.00;16.00;;;;;24.38;96.71;101578.81;6184256;23;45603;-81
2023/07/09 02:07:46;;;;;;;;;17.50;17.00;;;;;24.02;96.65;101529.78;6160574;23;45289;-82
2023/07/09 02:10:13;;;;;;;;;21.75;20.00;;;;;23.85;97.47;101509.72;6191107;23;45325;-82
2023/07/09 02:12:38;;;;;;;;;18.50;16.50;;;;;23.83;96.60;101498.22;6190270;23;45336;-82
2023/07/09 02:15:07;;;;;;;;;25.25;20.75;;;;;24.40;96.36;101603.84;6163633;23;46078;-82
2023/07/09 02:17:32;;;;;;;;;28.25;25.25;;;;;24.02;97.01;101564.09;6164389;23;45343;-81
2023/07/09 02:20:01;;;;;;;;;22.75;21.00;;;;;23.92;97.98;101547.84;6163191;23;45485;-82
2023/07/09 02:22:26;;;;;;;;;30.75;29.50;;;;;23.93;97.06;101557.66;6190609;23;45359;-82
2023/07/09 02:24:54;;;;;;;;;19.50;18.00;;;;;23.71;97.52;101506.59;6190991;23;45361;-81
2023/07/09 02:27:22;;;;;;;;;24.75;22.50;;;;;23.64;98.25;101506.28;6188890;23;45360;-81
2023/07/09 02:29:55;;;;;;;;;28.25;27.25;;;;;23.79;97.71;101542.72;6190688;23;45351;-82
2023/07/09 02:32:27;;;;;;;;;21.75;21.50;;;;;23.97;98.48;101569.06;6190079;23;45354;-81
2023/07/09 02:35:02;;;;;;;;;21.50;20.75;;;;;23.72;99.28;101533.44;6188254;23;45302;-81
2023/07/09 02:37:27;;;;;;;;;21.50;19.50;;;;;24.04;99.51;101600.78;6187810;23;45217;-81
2023/07/09 02:39:53;;;;;;;;;19.00;18.50;;;;;23.77;98.72;101550.09;6189258;23;45287;-82
2023/07/09 02:42:21;;;;;;;;;16.75;16.75;;;;;23.59;100.00;101513.13;6160941;23;45393;-82
2023/07/09 02:44:46;;;;;;;;;16.00;13.75;;;;;23.75;99.18;101544.00;6186656;23;45318;-82
2023/07/09 02:47:13;;;;;;;;;18.25;16.25;;;;;24.08;99.42;101594.13;6159304;23;45264;-82
2023/07/09 02:49:41;;;;;;;;;16.75;15.00;;;;;23.52;99.85;101510.13;6184329;23;45237;-82
2023/07/09 02:52:10;;;;;;;;;15.75;13.75;;;;;23.75;99.34;101562.06;6186972;23;45545;-81
2023/07/09 02:54:38;;;;;;;;;17.25;17.00;;;;;23.69;99.25;101544.53;6186610;23;45465;-82
2023/07/09 02:57:09;;;;;;;;;16.25;15.50;;;;;23.71;100.00;101552.50;6159898;23;45356;-81
2023/07/09 02:59:37;;;;;;;;;15.00;14.50;;;;;23.77;99.91;101576.25;6159142;23;45412;-81
2023/07/09 03:02:03;;;;;;;;;11.00;9.25;;;;;23.74;100.00;101576.53;6185317;23;46518;-81
2023/07/09 03:04:31;;;;;;;;;15.00;15.00;;;;;23.59;100.00;101567.97;6185395;23;45381;-81
2023/07/09 03:06:57;;;;;;;;;15.50;14.50;;;;;23.64;100.00;101562.16;6186269;23;45242;-81
2023/07/09 03:09:22;;;;;;;;;16.00;16.00;;;;;23.64;100.00;101567.56;6185003;23;45500;-81
2023/07/09 03:11:48;;;;;;;;;16.75;16.75;;;;;23.47;100.00;101560.09;6133659;23;45370;-81
2023/07/09 03:14:14;;;;;;;;;18.25;17.00;;;;;23.59;100.00;101577.94;6183850;23;45249;-81
2023/07/09 03:16:49;;;;;;;;;14.00;12.75;;;;;23.44;100.00;101577.44;6186103;23;45290;-81
2023/07/09 03:19:14;;;;;;;;;11.50;11.50;;;;;23.27;100.00;101551.03;6184714;23;45279;-81
2023/07/09 03:21:42;;;;;;;;;14.00;14.00;;;;;23.21;100.00;101532.69;6184632;23;45294;-81
2023/07/09 03:24:10;;;;;;;;;12.25;12.00;;;;;23.75;100.00;101637.69;6158674;23;45274;-81
2023/07/09 03:26:38;;;;;;;;;14.75;14.50;;;;;23.37;100.00;101589.72;6183785;23;45280;-81
2023/07/09 03:29:06;;;;;;;;;16.50;12.75;;;;;23.12;100.00;101553.25;6186213;23;45384;-81
2023/07/09 03:31:34;;;;;;;;;15.50;14.25;;;;;23.27;100.00;101580.72;6183894;23;45328;-82
2023/07/09 03:34:02;;;;;;;;;16.75;14.50;;;;;23.40;100.00;101592.19;6185079;23;45250;-82
2023/07/09 03:36:28;;;;;;;;;12.00;10.75;;;;;23.45;100.00;101600.75;6157346;23;45307;-82
2023/07/09 03:38:53;;;;;;;;;14.50;13.25;;;;;23.48;100.00;101622.09;6158781;23;45323;-81
2023/07/09 03:41:19;;;;;;;;;15.00;15.00;;;;;23.55;100.00;101619.69;6182896;23;45337;-81
2023/07/09 03:43:44;;;;;;;;;13.75;13.50;;;;;23.00;100.00;101556.19;6184839;23;45254;-81
2023/07/09 03:46:15;;;;;;;;;13.67;13.67;;;;;23.03;100.00;101561.31;6183559;23;45353;-81
2023/07/09 03:48:41;;;;;;;;;13.00;13.00;;;;;23.13;100.00;101595.47;6156956;23;45268;-82
2023/07/09 03:51:09;;;;;;;;;15.00;13.25;;;;;23.34;100.00;101611.59;6185280;23;46223;-82
2023/07/09 03:53:35;;;;;;;;;14.50;14.00;;;;;23.01;100.00;101553.34;6184054;23;45595;-81
2023/07/09 03:56:00;;;;;;;;;15.25;14.75;;;;;23.05;100.00;101579.06;6185998;23;45323;-82
2023/07/09 03:58:26;;;;;;;;;16.00;12.75;;;;;23.02;100.00;101571.25;6185722;23;45553;-81
2023/07/09 04:00:53;;;;;;;;;14.50;14.50;;;;;23.33;100.00;101628.78;6183161;23;48086;-81
2023/07/09 04:03:23;;;;;;;;;13.00;13.00;;;;;23.12;100.00;101603.69;6157790;23;45275;-82
2023/07/09 04:05:50;;;;;;;;;10.00;10.00;;;;;23.07;100.00;101600.53;6157448;23;45331;-82
2023/07/09 04:08:21;;;;;;;;;14.67;12.00;;;;;22.86;100.00;101573.56;6158713;23;45300;-82
2023/07/09 04:10:47;;;;;;;;;16.25;15.75;;;;;23.07;100.00;101600.53;6157454;23;47729;-82
2023/07/09 04:13:12;;;;;;;;;12.25;10.75;;;;;23.10;100.00;101636.19;6183109;23;45333;-82
2023/07/09 04:15:41;;;;;;;;;16.50;14.50;;;;;22.92;100.00;101591.91;6185513;23;45516;-81
2023/07/09 04:18:06;;;;;;;;;12.33;12.33;;;;;23.08;100.00;101627.38;6183753;23;45330;-81
2023/07/09 04:20:32;;;;;;;;;13.25;13.25;;;;;22.80;100.00;101574.09;6183744;23;45789;-82
2023/07/09 04:22:57;;;;;;;;;14.50;13.50;;;;;22.65;100.00;101569.97;6184899;23;45325;-82
2023/07/09 04:25:23;;;;;;;;;15.00;13.50;;;;;22.53;100.00;101547.63;6185169;23;45267;-82
2023/07/09 04:27:51;;;;;;;;;16.75;15.75;;;;;22.58;100.00;101553.47;6182547;23;45431;-82
2023/07/09 04:30:17;;;;;;;;;14.50;12.50;;;;;22.93;100.00;101608.97;6133629;23;47142;-81
2023/07/09 04:32:45;;;;;;;;;12.67;12.67;;;;;23.05;100.00;101624.09;6157280;23;45479;-81
2023/07/09 04:35:13;;;;;;;;;14.33;13.33;;;;;22.65;100.00;101551.09;6156402;23;45295;-82
2023/07/09 04:37:40;;;;;;;;;17.75;15.00;;;;;22.79;100.00;101577.78;6182001;23;45274;-81
2023/07/09 04:40:10;;;;;;;;;13.25;12.00;;;;;22.90;100.00;101599.28;6182128;23;46399;-82
2023/07/09 04:42:36;;;;;;;;;13.50;12.75;;;;;22.47;100.00;101520.31;6180736;23;45385;-82
2023/07/09 04:45:02;;;;;;;;;12.50;12.50;;;;;22.63;100.00;101545.84;6158037;23;45408;-82
2023/07/09 04:47:27;;;;;;;;;13.50;13.50;;;;;22.91;100.00;101603.69;6157042;23;45912;-81
2023/07/09 04:49:52;;;;;;;;;7.25;7.25;;;;;22.69;100.00;101557.97;6184405;23;45478;-81
2023/07/09 04:52:23;;;;;;;;;13.50;12.25;;;;;22.75;100.00;101569.09;6184198;23;45207;-81
2023/07/09 04:54:56;;;;;;;;;13.00;12.50;;;;;22.83;100.00;101563.91;6185029;23;45373;-81
2023/07/09 04:57:27;;;;;;;;;12.75;12.25;;;;;23.01;100.00;101590.25;6157180;23;45303;-81
2023/07/09 04:59:53;;;;;;;;;12.00;12.00;;;;;22.76;100.00;101560.03;6156578;23;45736;-81
2023/07/09 05:02:18;;;;;;;;;14.25;12.50;;;;;23.08;100.00;101592.28;6182888;23;45251;-81
2023/07/09 05:04:46;;;;;;;;;15.75;14.75;;;;;22.65;99.89;101522.28;6181914;23;45163;-82
2023/07/09 05:07:15;;;;;;;;;11.33;11.33;;;;;23.00;99.65;101573.22;6157699;23;45406;-82
2023/07/09 05:09:40;;;;;;;;;11.75;11.25;;;;;23.00;100.00;101565.13;6184362;23;45325;-82
2023/07/09 05:12:15;;;;;;;;;12.50;10.25;;;;;23.09;100.00;101567.03;6181720;23;45468;-82
2023/07/09 05:14:40;;;;;;;;;11.00;9.33;;;;;22.95;100.00;101548.47;6183334;23;45420;-81
2023/07/09 05:17:14;;;;;;;;;12.00;10.50;;;;;22.77;99.61;101498.84;6184630;23;45509;-82
2023/07/09 05:19:39;;;;;;;;;12.00;11.00;;;;;23.16;100.00;101548.44;6183687;23;46156;-82
2023/07/09 05:22:07;;;;;;;;;13.25;11.75;;;;;23.17;99.12;101560.94;6184008;23;45350;-82
2023/07/09 05:24:36;;;;;;;;;12.50;12.50;;;;;23.17;100.00;101551.00;6158247;23;45288;-81
2023/07/09 05:27:02;;;;;;;;;11.50;11.25;;;;;23.21;96.08;101575.88;6186476;23;45426;-82
2023/07/09 05:29:27;;;;;;;;;13.00;12.50;;;;;23.08;93.77;101542.88;6186400;23;45413;-81
2023/07/09 05:31:53;;;;;;;;;11.00;11.00;;;;;23.20;94.10;101536.41;6188012;23;45236;-81
2023/07/09 05:34:21;;;;;;;;;12.75;12.00;;;;;23.67;91.41;101621.31;6188559;23;45468;-82
2023/07/09 05:36:47;;;;;;;;;12.75;12.75;;;;;23.59;93.03;101586.03;6159968;23;45377;-82
2023/07/09 05:39:12;;;;;;;;;12.50;12.50;;;;;23.33;93.23;101515.41;6162431;23;45487;-81
2023/07/09 05:41:40;;;;;;;;;13.00;13.00;;;;;23.73;89.98;101578.38;6188671;23;45259;-82
2023/07/09 05:44:09;;;;;;;;;14.25;12.75;;;;;23.99;90.12;101619.25;6188972;23;45255;-81
2023/07/09 05:46:36;;;;;;;;;18.50;15.25;;;;;23.99;87.95;101602.19;6189174;23;45246;-80
2023/07/09 05:49:01;;;;;;;;;10.25;10.25;;;;;24.39;90.58;101638.13;6162372;23;46138;-80
2023/07/09 05:51:27;;;;;;;;;17.25;15.00;;;;;24.13;85.80;101589.16;6160851;23;45373;-79
2023/07/09 05:53:52;;;;;;;;;13.25;12.75;;;;;24.34;89.86;101600.69;6188849;23;45969;-80
2023/07/09 05:56:20;;;;;;;;;13.75;13.75;;;;;24.35;85.16;101591.59;6189537;23;45115;-80
2023/07/09 05:58:52;;;;;;;;;15.25;15.25;;;;;24.32;86.99;101580.22;6185606;23;46213;-81
2023/07/09 06:01:20;;;;;;;;;14.50;14.50;;;;;24.52;84.71;101602.69;6183633;23;45217;-81
2023/07/09 06:04:01;;;;;;;;;18.25;16.75;;;;;24.54;84.71;101570.97;6183255;23;45316;-81
2023/07/09 06:06:38;;;;;;;;;16.75;15.75;;;;;24.31;82.78;101514.47;6155219;23;45410;-81
2023/07/09 06:09:08;;;;;;;;;14.00;14.00;;;;;24.97;82.04;101625.47;6156845;23;46732;-81
2023/07/09 06:11:43;;;;;;;;;14.75;14.75;;;;;24.41;83.27;101519.84;6183903;23;45298;-81
2023/07/09 06:14:12;;;;;;;;;15.00;15.00;;;;;24.68;81.33;101559.69;6182507;23;45329;-81
2023/07/09 06:16:38;;;;;;;;;12.00;11.75;;;;;24.70;81.47;101530.66;6182047;23;45594;-81
2023/07/09 06:19:10;;;;;;;;;11.75;11.25;;;;;25.25;80.11;101619.16;6183595;23;46078;-81
2023/07/09 06:21:46;;;;;;;;;12.75;12.75;;;;;25.03;81.46;101578.88;6156499;23;45338;-81
2023/07/09 06:24:14;;;;;;;;;8.67;8.67;;;;;25.14;78.63;101594.94;6185212;23;45415;-81
2023/07/09 06:26:43;;;;;;;;;13.25;11.25;;;;;24.99;80.00;101566.66;6188671;23;45213;-81
2023/07/09 06:29:14;;;;;;;;;10.50;10.50;;;;;25.10;83.44;101598.09;6191981;23;47069;-81
2023/07/09 06:31:40;;;;;;;;;11.00;11.00;;;;;25.09;81.58;101613.50;6193610;23;45361;-80
2023/07/09 06:34:07;;;;;;;;;15.00;15.00;;;;;24.74;81.52;101578.91;6164389;23;45457;-80
2023/07/09 06:36:43;;;;;;;;;13.25;13.25;;;;;25.37;80.21;101676.69;6186927;23;45353;-81
2023/07/09 06:39:11;;;;;;;;;14.25;14.25;;;;;24.75;79.77;101579.75;6186893;23;46933;-81
2023/07/09 06:41:43;;;;;;;;;12.50;11.50;;;;;24.96;80.22;101615.66;6186536;23;45294;-81
2023/07/09 06:44:11;;;;;;;;;9.00;9.00;;;;;24.83;84.82;101599.75;6184108;23;45481;-81
2023/07/09 06:46:40;;;;;;;;;13.25;13.25;;;;;24.83;83.84;101577.22;6159114;23;45703;-81
2023/07/09 06:49:06;;;;;;;;;14.33;14.33;;;;;25.41;80.60;101688.94;6186122;23;47136;-81
2023/07/09 06:51:34;;;;;;;;;11.25;11.25;;;;;25.05;79.53;101630.16;6186586;23;45617;-81
2023/07/09 06:54:00;;;;;;;;;12.25;12.25;;;;;25.21;81.22;101647.53;6184277;23;45302;-80
2023/07/09 06:56:28;;;;;;;;;9.00;7.75;;;;;25.29;80.76;101668.47;6159496;23;45587;-81
2023/07/09 06:58:59;;;;;;;;;15.00;13.00;;;;;25.26;78.97;101669.59;6187562;23;46419;-81
2023/07/09 07:01:25;;;;;;;;;14.00;12.75;;;;;25.17;78.90;101658.78;6160559;23;45267;-81
2023/07/09 07:03:50;;;;;;;;;13.33;12.33;;;;;24.91;80.50;101620.63;6183219;23;45381;-81
2023/07/09 07:06:16;;;;;;;;;9.75;9.75;;;;;24.87;80.12;101621.91;6189269;23;45229;-81
2023/07/09 07:09:27;;;;;;;;;13.25;12.50;;;;;25.35;78.80;101703.94;6187471;23;47764;-81
2023/07/09 07:15:20;;;;;;;;;7.50;7.50;;;;;24.86;78.45;101588.63;6176684;23;45456;-81
2023/07/09 07:18:06;;;;;;;;;11.00;11.00;;;;;25.01;79.86;101590.84;6185124;23;45393;-81
2023/07/09 07:23:48;;;;;;;;;19.25;16.00;;;;;25.81;76.11;101670.59;6172631;23;45197;-81
2023/07/09 07:26:19;;;;;;;;;15.25;15.25;;;;;25.36;74.92;101607.25;6186816;23;45349;-80
2023/07/09 07:28:55;;;;;;;;;15.00;15.00;;;;;25.42;74.73;101631.06;6158923;23;45409;-81
2023/07/09 07:31:41;;;;;;;;;12.25;11.25;;;;;25.47;76.88;101630.59;6186024;23;45689;-81
2023/07/09 07:34:07;;;;;;;;;14.25;14.25;;;;;25.47;77.08;101652.28;6185521;23;45332;-80
2023/07/09 07:36:50;;;;;;;;;14.25;14.25;;;;;25.20;75.13;101617.88;6158746;23;45304;-80
2023/07/09 07:39:15;;;;;;;;;15.25;15.25;;;;;24.92;76.56;101591.72;6185607;23;45305;-80
2023/07/09 07:41:41;;;;;;;;;12.00;12.00;;;;;25.52;77.07;101710.50;6182834;23;47018;-80
2023/07/09 07:44:07;;;;;;;;;9.25;9.25;;;;;24.90;78.08;101629.78;6183552;23;45407;-80
2023/07/09 07:46:36;;;;;;;;;12.50;11.75;;;;;24.95;75.67;101646.44;6183341;23;45345;-81
2023/07/09 07:49:05;;;;;;;;;12.50;12.25;;;;;24.86;75.89;101647.28;6183654;23;45518;-81
2023/07/09 07:51:31;;;;;;;;;17.25;17.25;;;;;24.96;74.28;101690.59;6158403;23;47851;-81
2023/07/09 07:54:21;;;;;;;;;9.00;9.00;;;;;24.94;76.88;101727.75;6158473;23;45757;-81
2023/07/09 07:57:01;;;;;;;;;13.25;13.25;;;;;24.45;76.46;101694.38;6176131;23;45554;-81
2023/07/09 08:03:51;;;;;;;;;;;;;;;;;;;;;
2023/07/09 08:07:11;;;;;;;;;12.00;12.00;;;;;24.83;78.41;101783.75;6179050;23;45222;-81
2023/07/09 08:10:03;;;;;;;;;12.33;10.33;;;;;24.79;80.60;101768.75;6183423;23;45336;-81
2023/07/09 08:13:10;;;;;;;;;;;;;;;;;;;;;
2023/07/09 08:19:39;;;;;;;;;11.75;11.75;;;;;24.09;82.11;101654.41;6189649;23;45203;-80
2023/07/09 08:22:15;;;;;;;;;5.50;5.50;;;;;23.94;82.31;101666.63;6188630;23;45224;-80
2023/07/09 08:25:17;;;;;;;;;;;;;;;;;;;;;
2023/07/09 08:28:15;;;;;;;;;10.00;9.00;;;;;24.45;84.96;101770.09;6180816;23;74183;-81
2023/07/09 08:31:13;;;;;;;;;13.25;11.75;;;;;24.45;84.26;101763.81;6159999;23;45247;-81
2023/07/09 08:33:54;;;;;;;;;7.25;7.25;;;;;24.18;83.49;101729.34;6182282;23;45358;-80
2023/07/09 08:36:40;;;;;;;;;10.50;10.50;;;;;23.84;85.22;101672.84;6185293;23;45221;-80
2023/07/09 08:39:35;;;;;;;;;15.25;14.25;;;;;24.32;87.45;101742.44;6162459;23;47315;-81
2023/07/09 08:46:15;;;;;;;;;15.50;13.00;;;;;24.73;86.24;101752.22;6183680;23;45299;-80
2023/07/09 08:49:35;;;;;;;;;18.00;18.00;;;;;24.22;85.03;101664.00;6180874;23;45307;-81
2023/07/09 08:52:40;;;;;;;;;12.00;12.00;;;;;24.79;83.64;101747.09;6157609;23;45686;-81
2023/07/09 08:55:40;;;;;;;;;12.75;12.75;;;;;24.71;85.53;101749.66;6176178;23;45409;-80
2023/07/09 08:58:14;;;;;;;;;15.00;13.25;;;;;24.57;86.69;101735.69;6182938;23;45195;-79
2023/07/09 09:01:01;;;;;;;;;11.25;11.00;;;;;24.56;85.17;101748.34;6183426;23;45287;-82
2023/07/09 09:03:51;;;;;;;;;11.50;10.50;;;;;24.76;86.38;101770.88;6182796;23;46801;-81
2023/07/09 09:06:27;;;;;;;;;13.75;12.50;;;;;24.77;84.03;101778.03;6158558;23;45807;-81
2023/07/09 09:09:04;;;;;;;;;16.50;16.50;;;;;24.77;88.02;101788.84;6183650;23;45385;-79
2023/07/09 09:11:53;;;;;;;;;12.25;12.25;;;;;24.77;86.70;101780.72;6183500;23;45307;-80
2023/07/09 09:14:56;;;;;;;;;11.25;11.25;;;;;24.27;85.70;101699.63;6185472;23;47110;-77
2023/07/09 09:21:35;;;;;;;;;11.75;11.75;;;;;24.78;87.16;101755.34;6122427;23;45340;-78
2023/07/09 09:24:54;;;;;;;;;15.00;14.00;;;;;24.11;86.22;101649.75;6120135;23;45693;-78
2023/07/09 09:27:51;;;;;;;;;;;;;;;;;;;;;
2023/07/09 09:30:40;;;;;;;;;12.50;12.50;;;;;24.68;87.11;101806.75;6183558;23;72245;-76
2023/07/09 09:33:08;;;;;;;;;12.50;10.75;;;;;24.10;89.73;101732.69;6157889;23;45501;-75
2023/07/09 09:35:40;;;;;;;;;15.25;13.25;;;;;24.47;86.92;101775.38;6156379;23;45536;-76
2023/07/09 09:38:21;;;;;;;;;11.75;11.25;;;;;24.76;86.03;101789.84;6180742;23;47636;-76
2023/07/09 09:40:48;;;;;;;;;10.75;9.50;;;;;24.56;82.10;101742.94;6155885;23;45451;-76
2023/07/09 09:43:19;;;;;;;;;9.00;9.00;;;;;24.42;81.32;101729.81;6183028;23;45338;-76
2023/07/09 09:45:46;;;;;;;;;9.00;9.00;;;;;24.90;85.13;101819.25;6183780;23;45243;-76
2023/07/09 09:48:20;;;;;;;;;10.25;10.25;;;;;24.96;83.61;101844.88;6184978;23;46224;-76
2023/07/09 09:50:51;;;;;;;;;12.75;11.00;;;;;24.52;85.33;101757.72;6184731;23;45377;-76
2023/07/09 09:53:24;;;;;;;;;11.67;10.33;;;;;24.49;82.97;101739.09;6185053;23;45400;-76
2023/07/09 09:55:52;;;;;;;;;11.75;11.75;;;;;24.93;85.20;101812.69;6183623;23;45286;-76
2023/07/09 09:58:31;;;;;;;;;12.75;12.75;;;;;24.95;84.08;101795.28;6184283;23;45533;-76
2023/07/09 10:01:01;;;;;;;;;10.50;9.00;;;;;24.85;82.51;101789.00;6185046;23;45423;-76
2023/07/09 10:03:37;;;;;;;;;13.25;13.25;;;;;24.56;83.04;101721.31;6186003;23;45242;-76
2023/07/09 10:06:21;;;;;;;;;14.25;14.25;;;;;24.37;84.34;101713.16;6185893;23;45256;-77
2023/07/09 10:09:12;;;;;;;;;10.50;9.50;;;;;24.62;83.87;101755.03;6185366;23;46325;-77
2023/07/09 10:12:18;;;;;;;;;11.00;11.00;;;;;24.85;87.93;101813.38;6185487;23;45458;-77
2023/07/09 10:15:01;;;;;;;;;15.25;15.25;;;;;24.85;89.80;101786.31;6185791;23;45241;-76
2023/07/09 10:18:18;;;;;;;;;13.50;13.50;;;;;24.57;90.08;101744.66;6184428;23;45326;-77
2023/07/09 10:21:17;;;;;;;;;13.75;12.25;;;;;24.38;90.79;101691.38;6183558;23;46293;-77
2023/07/09 10:24:35;;;;;;;;;14.00;14.00;;;;;24.92;93.56;101763.09;6185601;23;45269;-78
2023/07/09 10:27:50;;;;;;;;;13.00;13.00;;;;;24.41;93.75;101692.94;6184111;23;45485;-78
2023/07/09 10:30:38;;;;;;;;;12.25;10.75;;;;;24.66;88.53;101737.53;6158496;23;45551;-78
2023/07/09 10:33:41;;;;;;;;;16.00;13.25;;;;;24.84;90.18;101768.34;6183578;23;46243;-78
2023/07/09 10:36:43;;;;;;;;;17.50;15.50;;;;;25.04;91.30;101785.47;6100711;23;45520;-78
2023/07/09 10:39:47;;;;;;;;;18.25;16.00;;;;;25.14;91.34;101800.72;6183173;23;45354;-77
2023/07/09 10:42:48;;;;;;;;;13.00;13.00;;;;;25.26;91.46;101794.16;6184545;23;45228;-77
2023/07/09 10:45:20;;;;;;;;;15.75;15.00;;;;;25.40;90.39;101788.31;6167884;23;45315;-77
2023/07/09 10:48:14;;;;;;;;;13.50;13.50;;;;;25.50;88.58;101790.19;6184595;23;45283;-77
2023/07/09 10:50:49;;;;;;;;;13.50;13.50;;;;;25.09;87.99;101705.53;6186020;23;45279;-76
2023/07/09 10:53:59;;;;;;;;;3.00;3.00;;;;;25.62;88.86;101760.06;6182295;23;45741;-77
2023/07/09 10:56:40;;;;;;;;;10.25;9.75;;;;;25.30;82.24;101695.38;6092427;23;45450;-77
2023/07/09 10:59:51;;;;;;;;;15.50;15.50;;;;;26.09;83.73;101782.59;6181835;23;45401;-76
2023/07/09 11:02:46;;;;;;;;;;;;;;;;;;;;;
2023/07/09 11:05:12;;;;;;;;;13.75;10.75;;;;;26.52;77.36;101716.03;6184342;23;71790;-76
2023/07/09 11:07:50;;;;;;;;;11.25;11.25;;;;;27.42;76.29;101788.19;6185054;23;45664;-76
2023/07/09 11:10:51;;;;;;;;;15.50;15.50;;;;;27.77;74.70;101783.72;6185769;23;45387;-76
2023/07/09 11:13:31;;;;;;;;;15.75;15.75;;;;;28.22;70.87;101814.28;6186227;23;45314;-77
2023/07/09 11:15:58;;;;;;;;;19.00;17.25;;;;;27.89;72.70;101726.19;6189488;23;45217;-77
2023/07/09 11:18:29;;;;;;;;;19.00;17.50;;;;;28.31;71.20;101774.34;6186227;23;46306;-77
2023/07/09 11:21:15;;;;;;;;;23.75;23.75;;;;;27.87;67.38;101686.59;6188373;23;45219;-77
2023/07/09 11:27:51;;;;;;;;;27.75;26.00;;;;;28.61;64.83;101715.75;6156169;23;45552;-77
2023/07/09 11:30:35;;;;;;;;;30.75;30.25;;;;;28.91;63.53;101751.44;6158778;23;46498;-77
2023/07/09 11:33:22;;;;;;;;;34.25;32.50;;;;;28.68;64.36;101679.56;6185703;23;45235;-78
2023/07/09 11:36:34;;;;;;;;;;;;;;;;;;;;;
2023/07/09 11:39:00;;;;;;;;;146.33;146.00;;;;;28.89;60.79;101693.53;6185168;23;72023;-77
2023/07/09 11:41:49;;;;;;;;;36.33;33.33;;;;;29.37;61.58;101738.19;6185043;23;46094;-77
2023/07/09 11:44:17;;;;;;;;;32.25;31.00;;;;;29.63;60.49;101738.81;6183725;23;45414;-77
2023/07/09 11:46:54;;;;;;;;;32.50;31.75;;;;;29.46;62.86;101701.69;6185767;23;45354;-77
2023/07/09 11:49:38;;;;;;;;;49.00;41.75;;;;;29.84;57.54;101714.59;6183454;23;45283;-77
2023/07/09 11:52:31;;;;;;;;;41.75;34.25;;;;;29.74;55.55;101716.66;6185299;23;45518;-77
2023/07/09 11:55:01;;;;;;;;;34.33;27.33;;;;;29.80;58.33;101729.59;6184067;23;45281;-78
2023/07/09 11:57:31;;;;;;;;;17.00;17.00;;;;;29.54;60.48;101666.25;6184631;23;45207;-77
2023/07/09 12:00:28;;;;;;;;;36.33;31.00;;;;;29.98;60.88;101693.91;6157237;23;45505;-77
2023/07/09 12:02:53;;;;;;;;;59.67;45.00;;;;;30.45;53.88;101713.00;6184914;23;45367;-78
2023/07/09 12:05:21;;;;;;;;;117.50;116.75;;;;;30.18;54.16;101651.50;6182605;23;45665;-77
2023/07/09 12:08:05;;;;;;;;;;;;;;;;;;;;;
2023/07/09 12:10:43;;;;;;;;;60.33;45.67;;;;;30.45;54.76;101674.75;6184011;23;72664;-78
2023/07/09 12:13:39;;;;;;;;;57.25;47.00;;;;;30.56;53.48;101679.81;6185924;23;46089;-78
2023/07/09 12:16:20;;;;;;;;;64.75;52.50;;;;;30.57;51.87;101672.44;6187034;23;45348;-78
2023/07/09 12:18:49;;;;;;;;;49.67;42.00;;;;;30.56;52.73;101682.56;6185289;23;45360;-78